Slater, MO (65349)

1:02 AM CST on February 07, 2016 (GMT -0600)
North Marshall | | Change Station
CLOSE
Current Station
Personal Weather Station
Location: Marshall, MO
Elevation: 725 ft
Nearby Weather Stations

Elev 725 ft 39.15 °N, 93.18 °W | Updated 4 seconds ago

Partly Cloudy
Partly Cloudy
40.3 °F
Feels Like 35 °F
N
7.6
Wind Variable Wind from East
Gusts 9.8 mph

Today
High -- | Low -- °F
--% Chance of Precip.
Yesterday
High -- | Low -- °F
Precip. -- in
Pressure 30.13 in
Visibility 10.0 miles
Clouds Clear
Windchill 35 °F
Dew Point 27 °F
Humidity 59%
Rainfall 0.00 in
Snow Depth Not available.
7:13 AM 5:39 PM
Waning Crescent, 2% visible
METAR KDMO 070653Z AUTO 21010KT 10SM CLR 04/M02 A3012 RMK AO2 SLP203 T00441022
Pressure 30.13 in
Visibility 10.0 miles
Clouds Clear
Windchill 35 °F
Dew Point 27 °F
Humidity 59%
Rainfall 0.00 in
Snow Depth Not available.
7:13 AM 5:39 PM
Waning Crescent, 2% visible
METAR KDMO 070653Z AUTO 21010KT 10SM CLR 04/M02 A3012 RMK AO2 SLP203 T00441022

10-Day Weather Forecast

Almanac

Astronomy

Feb. 07, 2016 Rise Set
Actual Time
Civil Twilight
Nautical Twilight
Astronomical Twilight
Moon
Length of Visible Light
Length of Day
Tomorrow will be .
, % of the Moon is Illuminated

Today's Extremes

State Highs State Lows

Community

WunderPhotos

Upload Photos

1,891,174 photos uploaded!

WunderBlog® & News

Nearby

Air Quality

  Air Quality AQ Index Pollutant
Not available.

Snow Depth

Station Depth Elevation

Earthquake Activity

City Distance Mag. Time & Date
Minimum magnitude displayed is 2.5.

Coastal Water Temperatures

Place Temperature

Stations

Nearby Weather Stations

Station Location Temp. Windchill Dew Point Humidity Wind Precip. Elev Updated Type
                   

Watches & Warnings

There are currently no watches in effect.